Time;durP1;ratioP1;P1;durP2;ratioP2;P2;SDS_P1;SDS_P2;PMS_P1;PMS_P2;Temp;Humidity;BMP_temperature;BMP_pressure;BME280_temperature;BME280_humidity;BME280_pressure;Samples;Min_cycle;Max_cycle;Signal;HPM_P1;HPM_P2
2023/07/03 00:01:58;;;;;;;23.00;13.43;;;;;;;21.61;73.49;98811.28;5091441;28;20020;-75
2023/07/03 00:04:23;;;;;;;14.50;11.95;;;;;;;22.23;73.81;98922.34;5091430;28;20024;-74
2023/07/03 00:06:49;;;;;;;18.38;13.20;;;;;;;22.16;73.89;98917.22;5091757;28;20417;-74
2023/07/03 00:09:14;;;;;;;17.73;12.13;;;;;;;22.01;73.78;98909.13;5092669;28;20016;-75
2023/07/03 00:11:39;;;;;;;17.08;12.70;;;;;;;22.24;73.89;98950.84;5093341;28;20073;-75
2023/07/03 00:14:05;;;;;;;17.80;12.90;;;;;;;22.02;73.70;98919.63;5094406;28;20480;-75
2023/07/03 00:16:30;;;;;;;16.85;12.02;;;;;;;21.77;73.93;98885.47;5091284;28;20020;-74
2023/07/03 00:19:15;;;;;;;17.55;11.23;;;;;;;22.25;73.98;98966.72;5091288;28;20103;-75
2023/07/03 00:21:43;;;;;;;17.08;12.25;;;;;;;21.86;74.08;98908.03;5091344;28;20027;-75
2023/07/03 00:24:13;;;;;;;22.52;12.25;;;;;;;21.90;74.07;98919.06;5091186;28;20028;-74
2023/07/03 00:26:39;;;;;;;15.43;11.35;;;;;;;21.90;73.75;98913.69;5089747;28;20027;-75
2023/07/03 00:29:05;;;;;;;15.55;12.00;;;;;;;22.23;73.93;98976.94;5090201;28;20024;-75
2023/07/03 00:31:31;;;;;;;20.95;11.80;;;;;;;22.17;73.89;98980.69;5089977;28;20097;-74
2023/07/03 00:33:58;;;;;;;16.25;11.55;;;;;;;21.43;73.99;98879.72;5092122;28;20089;-77
2023/07/03 00:36:23;;;;;;;15.23;11.48;;;;;;;21.79;74.19;98938.94;5093075;28;20028;-75
2023/07/03 00:38:48;;;;;;;15.85;10.75;;;;;;;21.71;74.09;98916.06;5090933;28;20501;-74
2023/07/03 00:41:14;;;;;;;15.15;11.98;;;;;;;21.67;74.11;98914.19;5094097;28;20516;-76
2023/07/03 00:43:43;;;;;;;16.63;11.35;;;;;;;21.80;73.92;98933.28;5094729;28;20049;-76
2023/07/03 00:46:11;;;;;;;13.45;10.82;;;;;;;22.14;74.01;98984.72;5094556;28;20020;-76
2023/07/03 00:48:38;;;;;;;15.32;11.35;;;;;;;21.71;73.91;98912.59;5094378;28;20035;-75
2023/07/03 00:51:04;;;;;;;14.55;10.32;;;;;;;21.81;73.94;98932.22;5094464;28;20027;-75
2023/07/03 00:53:30;;;;;;;16.30;12.05;;;;;;;22.17;73.88;98978.00;5094193;28;20032;-75
2023/07/03 00:55:55;;;;;;;16.60;11.48;;;;;;;22.03;74.04;98977.72;5093078;28;20031;-74
2023/07/03 00:58:21;;;;;;;14.90;10.70;;;;;;;22.04;73.85;98965.88;5094140;28;20052;-74
2023/07/03 01:00:56;;;;;;;14.52;10.88;;;;;;;22.11;73.96;98989.81;5093001;28;20152;-75
2023/07/03 01:03:44;;;;;;;14.18;11.68;;;;;;;22.10;73.88;98980.94;5094306;28;20028;-75
2023/07/03 01:06:18;;;;;;;13.93;10.27;;;;;;;21.89;74.07;98955.88;5093581;28;20032;-74
2023/07/03 01:08:49;;;;;;;15.73;11.70;;;;;;;21.83;74.08;98950.75;5094156;28;20083;-73
2023/07/03 01:11:17;;;;;;;15.20;10.43;;;;;;;21.74;74.06;98933.56;5094163;28;20077;-73
2023/07/03 01:13:43;;;;;;;16.02;11.00;;;;;;;22.07;74.08;98992.25;5094074;28;20036;-73
2023/07/03 01:16:10;;;;;;;15.73;11.00;;;;;;;22.09;73.85;98992.78;5094127;28;20055;-74
2023/07/03 01:18:36;;;;;;;15.32;10.93;;;;;;;21.74;73.92;98938.94;5093908;28;20055;-76
2023/07/03 01:21:12;;;;;;;14.32;11.40;;;;;;;22.03;73.85;98984.97;5092490;28;20118;-76
2023/07/03 01:23:58;;;;;;;15.18;10.60;;;;;;;22.02;74.12;98986.81;5093656;28;20085;-77
2023/07/03 01:26:26;;;;;;;16.67;11.13;;;;;;;22.07;73.79;98992.25;5093687;28;20107;-76
2023/07/03 01:28:57;;;;;;;13.90;10.80;;;;;;;22.09;73.60;98995.47;5093642;28;20035;-74
2023/07/03 01:31:25;;;;;;;12.53;10.93;;;;;;;22.05;73.64;98994.38;5093804;28;20027;-74
2023/07/03 01:33:52;;;;;;;17.70;11.30;;;;;;;22.03;73.76;98993.03;5093542;28;20081;-75
2023/07/03 01:36:18;;;;;;;15.13;10.57;;;;;;;21.42;73.62;98890.72;5093506;28;20058;-76
2023/07/03 01:38:46;;;;;;;18.25;12.23;;;;;;;21.51;73.73;98919.50;5093418;28;20052;-75
2023/07/03 01:41:14;;;;;;;13.88;10.82;;;;;;;21.84;73.89;98960.44;5093448;28;20085;-75
2023/07/03 01:43:40;;;;;;;15.85;11.02;;;;;;;21.63;73.63;98935.41;5093286;28;20032;-75
2023/07/03 01:46:07;;;;;;;14.65;10.63;;;;;;;21.78;73.97;98956.94;5091930;28;20111;-75
2023/07/03 01:48:33;;;;;;;14.27;10.82;;;;;;;21.59;73.89;98933.50;5093291;28;20031;-75
2023/07/03 01:50:59;;;;;;;17.33;11.05;;;;;;;21.70;73.87;98954.78;5092521;28;20028;-76
2023/07/03 01:53:31;;;;;;;18.17;11.15;;;;;;;21.64;73.85;98946.97;5092839;28;20178;-75
2023/07/03 01:56:19;;;;;;;;;;;;;;;21.78;74.76;98994.56;5093387;28;20020;-75
2023/07/03 01:58:51;;;;;;;17.25;11.75;;;;;;;21.45;74.15;98930.50;5092930;28;19916;-75
2023/07/03 02:01:44;;;;;;;17.15;10.95;;;;;;;21.77;74.26;98986.75;5093215;28;20024;-76
2023/07/03 02:04:46;;;;;;;15.15;11.02;;;;;;;21.85;74.14;98999.69;5093311;28;20074;-76
2023/07/03 02:07:12;;;;;;;;;;;;;;;21.60;75.22;98995.03;5077172;28;20039;-74
2023/07/03 02:09:39;;;;;;;14.00;10.63;;;;;;;21.28;74.54;98921.84;5093103;28;20285;-74
2023/07/03 02:12:06;;;;;;;14.98;10.68;;;;;;;21.44;74.24;98945.00;5092987;28;20620;-75
2023/07/03 02:14:34;;;;;;;13.63;10.57;;;;;;;21.81;74.40;99009.34;5091949;28;20032;-75
2023/07/03 02:17:01;;;;;;;16.63;11.35;;;;;;;21.44;73.78;98948.47;5092934;28;20028;-76
2023/07/03 02:19:29;;;;;;;13.45;9.80;;;;;;;21.51;73.81;98957.09;5092973;28;20031;-75
2023/07/03 02:21:56;;;;;;;13.48;9.73;;;;;;;21.91;73.70;99003.19;5091415;28;20090;-74
2023/07/03 02:24:22;;;;;;;17.65;11.00;;;;;;;21.62;73.46;98951.78;5093039;28;20058;-76
2023/07/03 02:26:48;;;;;;;13.75;10.70;;;;;;;21.99;73.49;99005.38;5091198;28;20400;-75
2023/07/03 02:29:13;;;;;;;12.38;9.65;;;;;;;21.70;73.49;98970.88;5092467;28;20076;-75
2023/07/03 02:31:38;;;;;;;14.13;9.52;;;;;;;22.08;73.30;99025.31;5092525;28;20416;-73
2023/07/03 02:34:04;;;;;;;15.95;10.45;;;;;;;21.97;73.15;98994.88;5092577;28;20039;-74
2023/07/03 02:36:33;;;;;;;14.40;10.00;;;;;;;22.11;73.09;99030.97;5092296;28;20028;-73
2023/07/03 02:38:58;;;;;;;14.10;9.73;;;;;;;21.97;73.32;99013.69;5092202;28;20034;-76
2023/07/03 02:41:24;;;;;;;11.55;10.35;;;;;;;21.92;73.48;99004.81;5092434;28;20028;-77
2023/07/03 02:43:49;;;;;;;18.20;11.57;;;;;;;21.84;73.39;98998.06;5091102;28;20110;-75
2023/07/03 02:46:15;;;;;;;16.48;10.82;;;;;;;21.80;73.52;99002.34;5092291;28;20016;-77
2023/07/03 02:48:40;;;;;;;13.68;10.38;;;;;;;21.80;73.54;98996.97;5092015;28;20020;-73
2023/07/03 02:51:05;;;;;;;15.30;9.95;;;;;;;21.50;73.40;98943.94;5092175;28;20066;-76
2023/07/03 02:53:31;;;;;;;15.18;10.60;;;;;;;21.77;73.30;98990.25;5092171;28;20063;-76
2023/07/03 02:55:56;;;;;;;17.05;11.52;;;;;;;22.14;73.10;99049.25;5091995;28;20028;-75
2023/07/03 02:58:22;;;;;;;16.00;11.18;;;;;;;21.96;73.25;99011.28;5092142;28;20047;-73
2023/07/03 03:00:47;;;;;;;12.13;9.25;;;;;;;22.16;73.17;99040.91;5090710;28;20085;-75
2023/07/03 03:03:13;;;;;;;15.90;10.75;;;;;;;22.19;73.08;99051.94;5097505;28;20107;-77
2023/07/03 03:05:39;;;;;;;15.02;11.55;;;;;;;21.71;72.92;98961.75;5100016;28;20016;-76
2023/07/03 03:08:05;;;;;;;15.80;11.07;;;;;;;22.18;72.92;99036.09;5099380;28;20027;-76
2023/07/03 03:10:30;;;;;;;12.95;10.45;;;;;;;21.98;73.03;99009.13;5091943;28;20023;-77
2023/07/03 03:12:56;;;;;;;16.40;11.45;;;;;;;21.83;73.17;98988.41;5091879;28;20024;-75
2023/07/03 03:15:21;;;;;;;12.55;9.63;;;;;;;21.67;72.89;98965.25;5091617;28;20077;-75
2023/07/03 03:17:46;;;;;;;14.00;10.45;;;;;;;21.83;72.96;98991.88;5091850;28;20023;-75
2023/07/03 03:20:16;;;;;;;17.23;10.80;;;;;;;22.25;72.94;99047.38;5092142;28;20039;-75
2023/07/03 03:22:41;;;;;;;14.77;10.95;;;;;;;21.87;73.08;98995.66;5092085;28;20032;-76
2023/07/03 03:25:07;;;;;;;15.43;10.32;;;;;;;21.67;73.04;98965.25;5091539;28;20031;-72
2023/07/03 03:27:32;;;;;;;12.10;10.73;;;;;;;21.86;73.33;99010.16;5096973;28;20028;-76
2023/07/03 03:29:58;;;;;;;13.05;10.30;;;;;;;22.21;73.27;99059.75;5095868;28;20040;-75
2023/07/03 03:32:24;;;;;;;15.95;10.57;;;;;;;22.13;73.07;99060.28;5091690;28;20028;-75
2023/07/03 03:34:50;;;;;;;15.48;10.63;;;;;;;21.76;73.12;98991.31;5091697;28;20413;-75
2023/07/03 03:37:17;;;;;;;13.05;11.00;;;;;;;21.79;73.10;98992.69;5091368;28;20512;-76
2023/07/03 03:39:42;;;;;;;14.55;10.80;;;;;;;21.77;72.99;98997.50;5091435;28;20031;-74
2023/07/03 03:42:09;;;;;;;14.57;11.27;;;;;;;22.13;72.83;99049.50;5091563;28;20501;-76
2023/07/03 03:44:35;;;;;;;15.93;11.40;;;;;;;22.12;72.65;99046.03;5091574;28;20020;-76
2023/07/03 03:47:01;;;;;;;11.57;10.23;;;;;;;22.37;72.35;99074.06;5090573;28;20065;-73
2023/07/03 03:49:26;;;;;;;14.80;10.45;;;;;;;21.98;72.27;99012.63;5090156;28;20463;-75
2023/07/03 03:51:52;;;;;;;16.65;11.85;;;;;;;22.42;72.19;99082.16;5091424;28;20035;-76
2023/07/03 03:54:19;;;;;;;14.13;11.27;;;;;;;22.41;72.22;99080.53;5091405;28;20538;-75
2023/07/03 03:56:44;;;;;;;16.00;10.95;;;;;;;22.40;72.35;99081.59;5091411;28;20024;-76
2023/07/03 03:59:10;;;;;;;18.05;11.45;;;;;;;21.97;72.22;99012.88;5089985;28;20070;-75
2023/07/03 04:01:35;;;;;;;15.50;11.95;;;;;;;22.48;72.36;99083.78;5091399;28;20066;-76
2023/07/03 04:04:01;;;;;;;16.10;10.75;;;;;;;22.41;72.38;99067.88;5091148;28;20020;-76
2023/07/03 04:06:26;;;;;;;16.40;10.77;;;;;;;22.55;72.79;99088.91;5091424;28;20024;-75
2023/07/03 04:08:52;;;;;;;14.38;10.00;;;;;;;22.18;72.32;99028.81;5091106;28;20466;-76
2023/07/03 04:11:18;;;;;;;19.60;10.90;;;;;;;22.59;72.39;99096.16;5091035;28;20453;-76
2023/07/03 04:13:44;;;;;;;13.77;10.93;;;;;;;22.11;72.38;99008.66;5091177;28;20052;-76
2023/07/03 04:16:10;;;;;;;13.25;9.80;;;;;;;22.55;72.43;99070.88;5094288;28;20039;-73
2023/07/03 04:18:36;;;;;;;17.70;12.00;;;;;;;22.60;72.59;99087.00;5095065;28;20081;-74
2023/07/03 04:21:01;;;;;;;15.45;11.43;;;;;;;22.66;72.67;99085.13;5095051;28;20032;-76
2023/07/03 04:23:27;;;;;;;12.30;10.00;;;;;;;22.70;72.58;99088.91;5094803;28;20024;-75
2023/07/03 04:25:53;;;;;;;13.32;10.63;;;;;;;22.19;72.59;99000.84;5094909;28;20020;-75
2023/07/03 04:28:21;;;;;;;15.10;10.50;;;;;;;22.59;72.60;99061.19;5094870;28;20026;-73
2023/07/03 04:30:47;;;;;;;16.27;11.55;;;;;;;22.69;72.48;99090.78;5094810;28;20031;-75
2023/07/03 04:33:13;;;;;;;13.02;10.65;;;;;;;22.78;72.70;99093.75;5094633;28;20081;-75
2023/07/03 04:35:39;;;;;;;13.65;10.65;;;;;;;22.56;72.43;99063.59;5094480;28;20028;-76
2023/07/03 04:38:04;;;;;;;21.52;11.18;;;;;;;22.81;72.54;99095.94;5094593;28;20221;-76
2023/07/03 04:40:30;;;;;;;17.40;11.25;;;;;;;22.85;72.78;99101.59;5093373;28;20027;-74
2023/07/03 04:42:56;;;;;;;15.00;10.35;;;;;;;22.74;72.75;99077.34;5094450;28;20027;-75
2023/07/03 04:45:24;;;;;;;15.32;10.52;;;;;;;22.38;72.75;99029.97;5094550;28;20028;-76
2023/07/03 04:47:51;;;;;;;16.42;11.68;;;;;;;22.45;72.54;99044.75;5094408;28;20073;-76
2023/07/03 04:50:16;;;;;;;13.68;10.93;;;;;;;22.75;72.79;99088.91;5094615;28;20032;-75
2023/07/03 04:52:43;;;;;;;12.85;10.45;;;;;;;22.44;72.42;99039.66;5094385;28;20085;-75
2023/07/03 04:55:11;;;;;;;13.38;10.73;;;;;;;22.89;72.26;99121.50;5094344;28;20024;-75
2023/07/03 04:57:38;;;;;;;15.02;11.48;;;;;;;22.79;72.25;99106.13;5092786;28;20139;-75
2023/07/03 05:00:14;;;;;;;16.85;12.32;;;;;;;22.80;71.93;99097.81;5092085;28;20035;-75
2023/07/03 05:02:44;;;;;;;16.42;12.65;;;;;;;22.80;72.08;99105.09;5094408;28;20101;-76
2023/07/03 05:05:12;;;;;;;15.00;12.25;;;;;;;22.86;72.06;99105.91;5094211;28;20077;-75
2023/07/03 05:07:42;;;;;;;22.30;12.80;;;;;;;22.55;72.05;99064.69;5093704;28;20474;-74
2023/07/03 05:10:09;;;;;;;19.30;13.05;;;;;;;22.78;72.19;99109.91;5093889;28;20024;-75
2023/07/03 05:12:35;;;;;;;19.40;12.80;;;;;;;22.93;72.07;99138.75;5092748;28;20462;-76
2023/07/03 05:15:00;;;;;;;16.63;12.27;;;;;;;22.62;71.89;99082.16;5093923;28;20016;-75
2023/07/03 05:17:26;;;;;;;15.50;12.75;;;;;;;22.93;71.65;99125.28;5093810;28;20027;-75
2023/07/03 05:19:52;;;;;;;15.32;11.52;;;;;;;22.90;71.19;99123.13;5092430;28;20411;-76
2023/07/03 05:22:18;;;;;;;14.73;11.98;;;;;;;22.44;70.65;99056.59;5093795;28;20095;-74
2023/07/03 05:24:43;;;;;;;15.48;11.93;;;;;;;22.96;70.17;99127.44;5093793;28;20069;-76
2023/07/03 05:27:08;;;;;;;13.57;10.35;;;;;;;23.02;69.76;99132.56;5092417;28;20048;-76
2023/07/03 05:29:34;;;;;;;16.88;11.30;;;;;;;22.94;69.44;99097.28;5092451;28;20047;-76
2023/07/03 05:32:00;;;;;;;17.17;11.63;;;;;;;22.77;68.95;99074.09;5081054;28;20032;-73
2023/07/03 05:34:27;;;;;;;15.13;12.10;;;;;;;23.12;68.51;99124.50;5063647;28;20410;-76
2023/07/03 05:36:53;;;;;;;17.70;12.07;;;;;;;22.77;68.26;99076.78;5072704;28;20025;-76
2023/07/03 05:39:18;;;;;;;14.27;10.85;;;;;;;23.05;68.27;99113.19;5075092;28;20028;-73
2023/07/03 05:41:44;;;;;;;14.43;11.13;;;;;;;23.12;67.87;99113.72;5070763;28;20413;-74
2023/07/03 05:44:09;;;;;;;14.23;12.77;;;;;;;22.66;68.02;99052.84;5072902;28;20024;-73
2023/07/03 05:46:34;;;;;;;13.90;11.32;;;;;;;22.61;67.34;99036.69;5072813;28;20016;-73
2023/07/03 05:49:00;;;;;;;13.70;12.00;;;;;;;23.02;66.66;99094.06;5072988;28;20486;-76
2023/07/03 05:51:25;;;;;;;17.00;12.05;;;;;;;23.33;67.06;99137.97;5071570;28;20020;-75
2023/07/03 05:53:50;;;;;;;18.38;12.80;;;;;;;23.21;66.98;99114.00;5072751;28;20474;-73
2023/07/03 05:56:16;;;;;;;14.27;11.77;;;;;;;23.42;66.72;99136.31;5072792;28;20024;-74
2023/07/03 05:58:42;;;;;;;16.73;12.52;;;;;;;23.27;66.80;99106.72;5075867;28;20076;-76
2023/07/03 06:01:08;;;;;;;17.55;15.45;;;;;;;23.06;66.67;99073.63;5080276;28;20032;-74
2023/07/03 06:03:33;;;;;;;16.75;12.70;;;;;;;23.55;66.36;99138.50;5074749;28;20024;-72
2023/07/03 06:05:59;;;;;;;14.63;11.85;;;;;;;23.30;66.30;99092.72;5072686;28;20425;-75
2023/07/03 06:08:24;;;;;;;16.45;13.77;;;;;;;23.19;65.85;99075.75;5073639;28;20029;-72
2023/07/03 06:10:51;;;;;;;16.55;13.10;;;;;;;23.67;65.82;99138.19;5073979;28;20032;-75
2023/07/03 06:13:16;;;;;;;13.60;12.20;;;;;;;23.72;65.60;99143.56;5072505;28;20085;-75
2023/07/03 06:15:42;;;;;;;15.52;12.10;;;;;;;23.59;65.00;99126.09;5078965;28;20447;-75
2023/07/03 06:18:07;;;;;;;16.08;12.75;;;;;;;23.70;64.81;99134.94;5085667;28;20024;-75
2023/07/03 06:20:34;;;;;;;13.85;12.00;;;;;;;23.85;64.79;99137.63;5074804;28;20523;-76
2023/07/03 06:22:59;;;;;;;16.70;14.20;;;;;;;23.77;64.35;99116.59;5077943;28;20032;-74
2023/07/03 06:25:25;;;;;;;19.73;15.05;;;;;;;23.97;64.25;99142.72;5086285;28;20024;-75
2023/07/03 06:27:50;;;;;;;15.57;13.52;;;;;;;23.98;64.22;99139.75;5085418;28;20420;-75
2023/07/03 06:30:16;;;;;;;16.02;14.48;;;;;;;23.72;64.12;99101.25;5074048;28;20017;-76
2023/07/03 06:32:41;;;;;;;18.25;15.07;;;;;;;23.93;64.21;99120.09;5059251;28;20031;-74
2023/07/03 06:35:07;;;;;;;15.82;14.32;;;;;;;23.76;63.82;99090.72;5052204;28;20492;-73
2023/07/03 06:37:33;;;;;;;17.55;13.65;;;;;;;23.72;63.56;99062.69;5066634;28;20032;-76
2023/07/03 06:39:59;;;;;;;16.40;14.48;;;;;;;24.09;63.36;99114.34;5071656;28;20021;-74
2023/07/03 06:42:24;;;;;;;16.90;15.15;;;;;;;23.99;63.11;99111.69;5071866;28;20099;-74
2023/07/03 06:44:50;;;;;;;19.02;16.83;;;;;;;24.24;62.81;99150.41;5083663;28;20135;-76
2023/07/03 06:47:15;;;;;;;15.95;14.35;;;;;;;24.26;62.25;99151.75;5090375;28;20016;-75
2023/07/03 06:49:41;;;;;;;16.88;15.07;;;;;;;24.04;61.83;99111.66;5091991;28;20020;-74
2023/07/03 06:52:08;;;;;;;16.92;15.18;;;;;;;24.36;61.37;99161.72;5091995;28;20020;-74
2023/07/03 06:54:34;;;;;;;19.35;15.23;;;;;;;24.22;61.26;99120.22;5084943;28;20021;-74
2023/07/03 06:56:59;;;;;;;18.00;14.75;;;;;;;24.33;61.18;99127.22;5087415;28;20034;-75
2023/07/03 06:59:25;;;;;;;19.92;16.42;;;;;;;24.45;61.17;99137.66;5073245;28;20044;-76
2023/07/03 07:01:50;;;;;;;18.55;16.67;;;;;;;24.47;60.94;99139.00;5070936;28;20555;-76
2023/07/03 07:04:16;;;;;;;18.77;16.77;;;;;;;24.56;60.93;99150.03;5074902;28;20034;-76
2023/07/03 07:06:41;;;;;;;18.35;16.60;;;;;;;24.45;60.46;99134.97;5071056;28;20032;-75
2023/07/03 07:09:07;;;;;;;18.65;16.60;;;;;;;24.34;60.46;99099.94;5072976;28;20031;-76
2023/07/03 07:11:35;;;;;;;19.35;17.45;;;;;;;24.87;60.45;99156.06;5061794;28;20025;-74
2023/07/03 07:14:02;;;;;;;19.90;17.15;;;;;;;24.69;59.42;99127.81;5050070;28;20029;-77
2023/07/03 07:16:31;;;;;;;20.05;18.00;;;;;;;24.98;59.61;99171.13;5062859;28;20051;-74
2023/07/03 07:19:02;;;;;;;24.60;17.23;;;;;;;24.87;59.37;99158.75;5057490;28;20074;-76
2023/07/03 07:21:30;;;;;;;19.05;17.02;;;;;;;25.08;59.84;99162.94;5070441;28;20103;-74
2023/07/03 07:23:59;;;;;;;20.85;18.83;;;;;;;25.14;59.17;99169.09;5069874;28;20039;-75
2023/07/03 07:26:28;;;;;;;21.45;19.25;;;;;;;25.20;59.14;99170.69;5069974;28;20020;-74
2023/07/03 07:28:54;;;;;;;20.92;18.88;;;;;;;24.98;59.04;99122.50;5064310;28;20033;-77
2023/07/03 07:31:24;;;;;;;19.83;17.52;;;;;;;25.34;59.25;99183.28;5071202;28;20395;-76
2023/07/03 07:33:51;;;;;;;20.48;17.33;;;;;;;24.97;58.56;99128.97;5071314;28;20432;-75
2023/07/03 07:36:18;;;;;;;20.13;18.17;;;;;;;25.20;58.27;99143.66;5071148;28;20029;-76
2023/07/03 07:38:44;;;;;;;22.67;17.90;;;;;;;25.48;57.95;99177.22;5070284;28;20112;-74
2023/07/03 07:41:11;;;;;;;20.65;18.45;;;;;;;25.20;57.95;99116.66;5069520;28;20209;-75
2023/07/03 07:43:36;;;;;;;21.25;17.55;;;;;;;25.60;57.66;99169.53;5072222;28;20032;-73
2023/07/03 07:46:02;;;;;;;19.85;17.75;;;;;;;25.21;57.17;99104.75;5070572;28;20509;-74
2023/07/03 07:48:27;;;;;;;19.35;17.52;;;;;;;25.46;56.79;99141.56;5071310;28;20485;-74
2023/07/03 07:50:53;;;;;;;19.25;17.25;;;;;;;25.54;56.28;99132.81;5074005;28;20086;-76
2023/07/03 07:53:18;;;;;;;18.90;16.92;;;;;;;25.84;56.20;99170.38;5076092;28;20028;-76
2023/07/03 07:55:44;;;;;;;20.30;18.17;;;;;;;25.65;55.95;99123.50;5077280;28;20038;-76
2023/07/03 07:58:10;;;;;;;18.02;16.23;;;;;;;25.71;55.74;99144.03;5067239;28;20438;-75
2023/07/03 08:00:35;;;;;;;19.55;17.42;;;;;;;26.13;55.33;99183.09;5079026;28;20024;-76
2023/07/03 08:03:01;;;;;;;22.33;18.13;;;;;;;26.12;55.38;99179.56;5073748;28;20020;-76
2023/07/03 08:05:27;;;;;;;19.48;17.70;;;;;;;26.22;55.38;99173.22;5088946;28;20034;-77
2023/07/03 08:07:52;;;;;;;20.98;18.83;;;;;;;26.07;55.74;99132.81;5079954;28;20040;-76
2023/07/03 08:10:19;;;;;;;19.60;17.60;;;;;;;26.20;55.36;99138.34;5073890;28;20035;-75
2023/07/03 08:12:46;;;;;;;21.88;19.85;;;;;;;26.07;55.22;99103.06;5074248;28;20032;-76
2023/07/03 08:15:12;;;;;;;20.83;18.08;;;;;;;26.24;55.02;99125.03;5083073;28;20023;-75
2023/07/03 08:17:39;;;;;;;18.40;16.60;;;;;;;26.67;54.52;99162.91;5075243;28;20047;-77
2023/07/03 08:20:11;;;;;;;20.02;18.02;;;;;;;26.77;54.49;99168.22;5074390;28;20020;-74
2023/07/03 08:22:40;;;;;;;17.80;15.95;;;;;;;26.94;53.86;99182.03;5074082;28;20030;-77
2023/07/03 08:25:07;;;;;;;17.65;15.88;;;;;;;26.51;53.27;99108.16;5073212;28;20539;-73
2023/07/03 08:27:32;;;;;;;16.27;14.68;;;;;;;27.07;53.01;99186.75;5074459;28;20051;-75
2023/07/03 08:29:58;;;;;;;18.33;16.42;;;;;;;26.47;52.83;99075.47;5078518;28;20024;-76
2023/07/03 08:32:23;;;;;;;21.73;17.35;;;;;;;27.04;52.53;99154.81;5073626;28;20074;-76
2023/07/03 08:34:50;;;;;;;16.30;14.75;;;;;;;27.22;52.04;99183.78;5076200;28;20110;-75
2023/07/03 08:37:16;;;;;;;17.58;15.88;;;;;;;27.30;52.43;99185.00;5077263;28;20058;-74
2023/07/03 08:39:42;;;;;;;17.52;15.73;;;;;;;27.31;51.81;99178.50;5074385;28;20470;-74
2023/07/03 08:42:25;;;;;;;18.20;16.50;;;;;;;27.20;51.58;99152.66;5076737;28;20230;-74
2023/07/03 08:44:51;;;;;;;16.77;15.15;;;;;;;27.18;50.94;99146.72;5073061;28;20085;-75
2023/07/03 08:47:23;;;;;;;18.35;16.63;;;;;;;27.50;51.42;99173.03;5073071;28;20024;-73
2023/07/03 08:49:51;;;;;;;16.67;14.98;;;;;;;27.52;51.01;99154.56;5070496;28;20051;-76
2023/07/03 08:52:44;;;;;;;17.35;15.57;;;;;;;27.84;50.23;99180.84;5074368;28;20020;-76
2023/07/03 08:55:17;;;;;;;17.65;15.85;;;;;;;27.72;49.67;99151.50;5074121;28;20027;-75
2023/07/03 08:57:42;;;;;;;14.82;13.38;;;;;;;28.08;48.91;99186.09;5081791;28;20624;-76
2023/07/03 09:00:11;;;;;;;18.63;16.27;;;;;;;27.91;48.50;99145.19;5085946;28;20115;-75
2023/07/03 09:02:44;;;;;;;15.52;13.93;;;;;;;28.12;48.00;99174.31;5073152;28;20024;-76
2023/07/03 09:05:22;;;;;;;17.55;15.93;;;;;;;28.39;47.45;99189.03;5077800;28;20024;-75
2023/07/03 09:07:52;;;;;;;16.10;14.48;;;;;;;28.50;47.36;99195.84;5066676;28;20021;-75
2023/07/03 09:10:42;;;;;;;14.98;13.48;;;;;;;28.63;46.82;99195.03;5075558;28;20035;-74
2023/07/03 09:13:08;;;;;;;14.38;12.88;;;;;;;28.71;46.52;99190.78;5075259;28;20035;-75
2023/07/03 09:15:54;;;;;;;15.20;13.27;;;;;;;28.79;46.46;99193.56;5073007;28;20028;-76
2023/07/03 09:18:24;;;;;;;16.08;14.40;;;;;;;28.90;46.03;99196.09;5079372;28;20035;-76
2023/07/03 09:20:51;;;;;;;17.33;15.63;;;;;;;28.58;45.95;99119.09;5074259;28;20081;-78
2023/07/03 09:23:25;;;;;;;16.85;15.13;;;;;;;28.84;45.60;99138.34;5073659;28;20099;-77
2023/07/03 09:26:17;;;;;;;12.98;11.77;;;;;;;29.37;45.18;99194.69;5073340;28;20059;-75
2023/07/03 09:28:43;;;;;;;13.32;11.98;;;;;;;29.55;44.37;99193.72;5074603;28;20036;-75
2023/07/03 09:31:08;;;;;;;14.02;12.65;;;;;;;29.43;43.98;99144.53;5088912;28;20035;-75
2023/07/03 09:33:34;;;;;;;14.15;12.60;;;;;;;29.41;43.85;99123.06;5073301;28;20032;-75
2023/07/03 09:36:18;;;;;;;13.07;11.88;;;;;;;29.90;43.21;99155.81;5071252;28;20039;-75
2023/07/03 09:38:44;;;;;;;12.75;11.55;;;;;;;30.22;42.87;99171.78;5074358;28;20029;-75
2023/07/03 09:41:09;;;;;;;17.35;15.60;;;;;;;30.48;43.08;99190.13;5072156;28;20028;-75
2023/07/03 09:43:43;;;;;;;13.90;12.60;;;;;;;30.21;42.86;99189.25;5075148;28;20477;-76
2023/07/03 09:46:14;;;;;;;14.25;12.95;;;;;;;29.71;42.94;99118.72;5084541;28;20154;-76
2023/07/03 09:48:44;;;;;;;13.75;12.52;;;;;;;29.99;42.80;99143.84;5088605;28;20114;-74
2023/07/03 09:51:25;;;;;;;16.15;14.55;;;;;;;30.49;42.15;99161.78;5071457;28;20112;-77
2023/07/03 09:53:51;;;;;;;17.40;15.80;;;;;;;30.36;42.10;99147.94;5069344;28;20055;-78
2023/07/03 09:56:21;;;;;;;14.75;13.30;;;;;;;30.35;42.45;99181.75;5055904;28;20474;-76
2023/07/03 09:58:49;;;;;;;14.32;12.93;;;;;;;30.32;42.47;99178.88;5052498;28;20139;-76
2023/07/03 10:01:19;;;;;;;13.75;12.40;;;;;;;30.53;41.93;99160.00;5056419;28;20500;-74
2023/07/03 10:03:45;;;;;;;16.48;14.88;;;;;;;30.45;41.13;99098.13;5070061;28;20035;-76
2023/07/03 10:06:17;;;;;;;12.60;11.43;;;;;;;31.14;40.30;99163.56;5073708;28;20016;-77
2023/07/03 10:08:46;;;;;;;13.68;12.35;;;;;;;31.26;40.36;99183.66;5074681;28;20036;-77
2023/07/03 10:11:14;;;;;;;12.95;11.77;;;;;;;30.98;40.58;99125.88;5073356;28;20485;-76
2023/07/03 10:13:51;;;;;;;12.23;11.13;;;;;;;31.40;39.39;99158.09;5071637;28;20032;-77
2023/07/03 10:16:20;;;;;;;12.50;11.27;;;;;;;31.04;39.93;99101.97;5070669;28;20042;-77
2023/07/03 10:18:48;;;;;;;12.73;11.43;;;;;;;31.03;40.08;99091.41;5072390;28;20029;-76
2023/07/03 10:21:17;;;;;;;13.25;11.90;;;;;;;31.51;39.79;99173.81;5071077;28;20024;-75
2023/07/03 10:23:44;;;;;;;11.15;10.10;;;;;;;31.14;39.99;99158.91;5072233;28;20528;-76
2023/07/03 10:26:20;;;;;;;11.80;10.80;;;;;;;31.09;38.89;99131.81;5071691;28;20552;-74
2023/07/03 10:28:51;;;;;;;11.50;10.40;;;;;;;31.26;39.00;99126.38;5071615;28;20158;-76
2023/07/03 10:31:23;;;;;;;12.60;11.45;;;;;;;31.74;39.18;99157.22;5071041;28;20064;-77
2023/07/03 10:33:50;;;;;;;13.23;12.02;;;;;;;31.85;38.96;99122.97;5072087;28;20024;-76
2023/07/03 10:36:24;;;;;;;11.18;10.18;;;;;;;32.22;38.63;99181.44;5072390;28;20024;-77
2023/07/03 10:39:04;;;;;;;12.23;11.13;;;;;;;32.59;37.68;99155.16;5069886;28;20561;-77
2023/07/03 10:41:36;;;;;;;11.88;10.77;;;;;;;32.44;37.26;99090.19;5071620;28;20028;-76
2023/07/03 10:44:07;;;;;;;11.13;9.90;;;;;;;33.09;36.77;99173.47;5071936;28;20535;-76
2023/07/03 10:47:11;;;;;;;10.93;9.82;;;;;;;32.98;36.62;99155.88;5070160;28;20035;-77
2023/07/03 10:49:37;;;;;;;11.63;10.52;;;;;;;33.19;36.52;99151.16;5066172;28;20040;-77
2023/07/03 10:52:25;;;;;;;11.38;10.27;;;;;;;33.43;35.93;99156.72;5073310;28;20027;-75
2023/07/03 10:55:12;;;;;;;10.50;9.50;;;;;;;33.23;32.89;99089.16;5067412;28;20528;-77
2023/07/03 10:58:12;;;;;;;10.75;9.60;;;;;;;33.53;33.90;99125.41;5069510;28;20045;-76
2023/07/03 11:00:56;;;;;;;11.17;9.63;;;;;;;33.80;34.37;99149.38;5071139;28;20040;-77
2023/07/03 11:03:49;;;;;;;11.82;9.93;;;;;;;33.50;33.17;99076.81;5052941;28;20064;-77
2023/07/03 11:06:38;;;;;;;13.07;11.73;;;;;;;34.07;34.22;99134.22;5071770;28;20036;-76
2023/07/03 11:09:12;;;;;;;10.30;8.82;;;;;;;34.22;33.76;99140.97;5069862;28;20097;-77
2023/07/03 11:11:50;;;;;;;11.95;10.95;;;;;;;34.19;33.90;99125.22;5069862;28;20029;-78
2023/07/03 11:14:15;;;;;;;10.60;9.50;;;;;;;34.42;33.57;99137.31;5071486;28;20016;-77
2023/07/03 11:17:11;;;;;;;10.98;9.85;;;;;;;34.41;32.32;99113.78;5071136;28;20032;-77
2023/07/03 11:20:10;;;;;;;10.35;8.88;;;;;;;34.44;32.14;99133.41;5068764;28;20021;-76
2023/07/03 11:22:47;;;;;;;23.75;11.95;;;;;;;34.63;32.71;99141.81;5073901;28;20025;-77
2023/07/03 11:25:24;;;;;;;9.25;8.35;;;;;;;34.46;32.00;99103.72;5069908;28;20461;-76
2023/07/03 11:27:58;;;;;;;12.68;11.00;;;;;;;34.38;31.99;99086.25;5071457;28;20044;-76